createdAt,value
2022-12-20T00:00:07.773Z,44.40
2022-12-20T00:01:02.803Z,43.60
2022-12-20T00:01:57.998Z,45.40
2022-12-20T00:02:53.069Z,38.70
2022-12-20T00:03:47.968Z,45.70
2022-12-20T00:04:43.049Z,45.10
2022-12-20T00:05:38.197Z,43.10
2022-12-20T00:06:33.638Z,41.50
2022-12-20T00:07:28.686Z,44.80
2022-12-20T00:08:23.763Z,46.80
2022-12-20T00:09:18.946Z,45.10
2022-12-20T00:10:14.240Z,46.40
2022-12-20T00:11:09.482Z,47.60
2022-12-20T00:12:04.669Z,47.80
2022-12-20T00:12:59.806Z,41.20
2022-12-20T00:13:55.113Z,45.10
2022-12-20T00:14:50.307Z,44.80
2022-12-20T00:15:45.492Z,45.30
2022-12-20T00:16:40.823Z,46.10
2022-12-20T00:17:35.923Z,43.50
2022-12-20T00:18:31.020Z,43.90
2022-12-20T00:19:26.262Z,45.00
2022-12-20T00:20:21.432Z,48.20
2022-12-20T00:21:16.768Z,42.50
2022-12-20T00:22:11.847Z,45.80
2022-12-20T00:23:07.001Z,48.10
2022-12-20T00:24:02.179Z,41.90
2022-12-20T00:24:57.546Z,48.50
2022-12-20T00:25:52.687Z,39.70
2022-12-20T00:26:47.879Z,40.20
2022-12-20T00:27:43.059Z,44.70
2022-12-20T00:28:38.386Z,49.20
2022-12-20T00:29:33.385Z,45.20
2022-12-20T00:30:28.587Z,46.30
2022-12-20T00:31:23.857Z,48.70
2022-12-20T00:32:19.046Z,46.60
2022-12-20T00:33:14.532Z,45.40
2022-12-20T00:34:09.441Z,44.50
2022-12-20T00:35:04.659Z,50.70
2022-12-20T00:35:59.856Z,51.00
2022-12-20T00:36:54.983Z,46.10
2022-12-20T00:37:50.455Z,40.60
2022-12-20T00:38:45.536Z,46.80
2022-12-20T00:39:40.702Z,45.60
2022-12-20T00:40:35.866Z,44.60
2022-12-20T00:41:31.214Z,39.90
2022-12-20T00:42:26.226Z,45.50
2022-12-20T00:43:21.290Z,45.80
2022-12-20T00:44:16.382Z,46.20
2022-12-20T00:45:11.420Z,40.70
2022-12-20T00:46:06.465Z,44.00
2022-12-20T00:47:01.618Z,39.20
2022-12-20T00:47:56.568Z,43.70
2022-12-20T00:48:51.746Z,41.90
2022-12-20T00:49:46.671Z,47.60
2022-12-20T00:50:41.720Z,43.60
2022-12-20T00:51:36.805Z,41.30
2022-12-20T00:52:31.862Z,41.90
2022-12-20T00:53:26.914Z,46.20
2022-12-20T00:54:21.978Z,49.20
2022-12-20T00:55:17.009Z,45.90
2022-12-20T00:56:12.077Z,44.70
2022-12-20T00:57:07.141Z,41.50
2022-12-20T00:58:02.234Z,40.90
2022-12-20T00:58:57.379Z,46.40
2022-12-20T00:59:52.472Z,47.10
2022-12-20T01:00:52.240Z,45.00
2022-12-20T01:01:44.075Z,53.50
2022-12-20T01:02:38.216Z,49.40
2022-12-20T01:03:33.375Z,43.80
2022-12-20T01:04:28.420Z,40.40
2022-12-20T01:05:23.598Z,43.90
2022-12-20T01:06:18.756Z,42.70
2022-12-20T01:07:13.947Z,43.60
2022-12-20T01:08:09.664Z,43.00
2022-12-20T01:09:04.898Z,47.10
2022-12-20T01:10:00.732Z,47.20
2022-12-20T01:10:55.906Z,48.40
2022-12-20T01:11:51.292Z,44.00
2022-12-20T01:12:47.032Z,45.40
2022-12-20T01:13:42.278Z,49.60
2022-12-20T01:14:37.457Z,47.50
2022-12-20T01:15:33.743Z,41.10
2022-12-20T01:16:29.005Z,45.20
2022-12-20T01:17:24.731Z,42.20
2022-12-20T01:18:19.996Z,48.90
2022-12-20T01:19:15.215Z,40.70
2022-12-20T01:20:10.977Z,43.00
2022-12-20T01:21:06.164Z,46.70
2022-12-20T01:22:02.044Z,49.10
2022-12-20T01:22:57.070Z,43.00
2022-12-20T01:23:52.467Z,42.50
2022-12-20T01:24:48.093Z,40.00
2022-12-20T01:25:43.300Z,41.20
2022-12-20T01:26:38.587Z,46.60
2022-12-20T01:27:34.815Z,42.70
2022-12-20T01:28:29.963Z,48.50
2022-12-20T01:29:25.907Z,43.60
2022-12-20T01:30:21.060Z,43.00
2022-12-20T01:31:16.559Z,42.70
2022-12-20T01:32:12.274Z,40.80
2022-12-20T01:33:07.491Z,46.40
2022-12-20T01:34:03.259Z,44.00
2022-12-20T01:34:58.468Z,45.10
2022-12-20T01:35:53.777Z,43.70
2022-12-20T01:36:49.533Z,38.00
2022-12-20T01:37:44.716Z,42.40
2022-12-20T01:38:39.954Z,40.40
2022-12-20T01:39:36.353Z,46.70
2022-12-20T01:40:31.563Z,44.10
2022-12-20T01:41:27.309Z,41.90
2022-12-20T01:42:22.474Z,56.70
2022-12-20T01:43:17.786Z,41.80
2022-12-20T01:44:13.528Z,43.40
2022-12-20T01:45:08.755Z,47.40
2022-12-20T01:46:04.589Z,43.30
2022-12-20T01:46:59.617Z,40.90
2022-12-20T01:47:54.987Z,46.70
2022-12-20T01:48:50.611Z,43.00
2022-12-20T01:49:45.807Z,42.20
2022-12-20T01:50:40.973Z,41.00
2022-12-20T01:51:37.422Z,46.40
2022-12-20T01:52:32.601Z,39.30
2022-12-20T01:53:28.353Z,43.30
2022-12-20T01:54:23.551Z,44.30
2022-12-20T01:55:18.749Z,45.40
2022-12-20T01:56:14.526Z,42.90
2022-12-20T01:57:09.725Z,44.30
2022-12-20T01:58:05.610Z,40.80
2022-12-20T01:59:00.679Z,44.00
2022-12-20T01:59:55.885Z,42.00
2022-12-20T02:00:51.701Z,42.90
2022-12-20T02:01:47.034Z,40.70
2022-12-20T02:02:42.362Z,42.40
2022-12-20T02:03:38.749Z,41.10
2022-12-20T02:04:33.951Z,44.70
2022-12-20T02:05:29.722Z,46.30
2022-12-20T02:06:24.901Z,43.90
2022-12-20T02:07:20.265Z,37.80
2022-12-20T02:08:15.309Z,37.40
2022-12-20T02:09:10.510Z,44.20
2022-12-20T02:10:06.302Z,41.30
2022-12-20T02:11:01.665Z,45.80
2022-12-20T02:11:56.801Z,42.10
2022-12-20T02:12:53.237Z,41.80
2022-12-20T02:13:48.421Z,44.30
2022-12-20T02:14:44.205Z,47.80
2022-12-20T02:15:39.391Z,41.60
2022-12-20T02:16:34.934Z,36.70
2022-12-20T02:17:30.581Z,40.60
2022-12-20T02:18:25.795Z,41.60
2022-12-20T02:19:21.532Z,40.10
2022-12-20T02:20:16.832Z,40.90
2022-12-20T02:21:12.173Z,34.60
2022-12-20T02:22:07.806Z,37.80
2022-12-20T02:23:02.983Z,38.60
2022-12-20T02:23:58.198Z,44.40
2022-12-20T02:24:53.420Z,43.30
2022-12-20T02:25:48.768Z,41.70
2022-12-20T02:26:43.768Z,37.60
2022-12-20T02:27:38.771Z,36.20
2022-12-20T02:28:37.387Z,39.00
2022-12-20T02:29:32.663Z,40.90
2022-12-20T02:30:28.146Z,37.60
2022-12-20T02:31:23.307Z,46.70
2022-12-20T02:32:18.348Z,46.30
2022-12-20T02:33:13.430Z,38.70
2022-12-20T02:34:08.384Z,34.40
2022-12-20T02:35:03.476Z,41.00
2022-12-20T02:35:58.503Z,40.40
2022-12-20T02:36:53.711Z,43.30
2022-12-20T02:37:48.748Z,43.10
2022-12-20T02:38:43.839Z,45.70
2022-12-20T02:39:38.869Z,40.80
2022-12-20T02:40:34.045Z,43.90
2022-12-20T02:41:28.953Z,52.40
2022-12-20T02:42:24.140Z,41.50
2022-12-20T02:43:19.203Z,48.50
2022-12-20T02:44:14.255Z,40.20
2022-12-20T02:45:09.338Z,42.10
2022-12-20T02:46:04.460Z,43.80
2022-12-20T02:46:59.489Z,43.90
2022-12-20T02:47:54.670Z,41.60
2022-12-20T02:48:49.806Z,44.70
2022-12-20T02:49:44.869Z,46.00
2022-12-20T02:50:40.093Z,41.80
2022-12-20T02:51:34.989Z,40.50
2022-12-20T02:52:30.033Z,40.70
2022-12-20T02:53:25.065Z,43.00
2022-12-20T02:54:20.063Z,40.20
2022-12-20T02:55:15.142Z,42.50
2022-12-20T02:56:10.176Z,40.20
2022-12-20T02:57:05.196Z,41.40
2022-12-20T02:58:00.918Z,38.30
2022-12-20T02:58:55.384Z,37.90
2022-12-20T02:59:50.413Z,43.70
2022-12-20T03:00:45.435Z,38.90
2022-12-20T03:01:40.543Z,36.00
2022-12-20T03:02:35.876Z,39.20
2022-12-20T03:03:30.962Z,42.40
2022-12-20T03:04:26.292Z,40.50
2022-12-20T03:05:21.362Z,38.20
2022-12-20T03:06:16.556Z,42.10
2022-12-20T03:07:11.740Z,43.80
2022-12-20T03:08:06.908Z,38.00
2022-12-20T03:09:02.213Z,37.10
2022-12-20T03:09:57.282Z,39.20
2022-12-20T03:10:52.713Z,43.00
2022-12-20T03:11:47.699Z,40.30
2022-12-20T03:12:42.861Z,38.60
2022-12-20T03:13:38.277Z,38.90
2022-12-20T03:14:33.316Z,42.80
2022-12-20T03:15:28.788Z,33.00
2022-12-20T03:16:23.916Z,44.80
2022-12-20T03:17:19.188Z,39.30
2022-12-20T03:18:14.373Z,36.60
2022-12-20T03:19:09.633Z,38.80
2022-12-20T03:20:04.823Z,40.90
2022-12-20T03:21:00.353Z,38.90
2022-12-20T03:21:55.458Z,42.50
2022-12-20T03:22:50.731Z,42.70
2022-12-20T03:23:45.953Z,40.30
2022-12-20T03:24:41.216Z,38.60
2022-12-20T03:25:36.580Z,36.70
2022-12-20T03:26:31.784Z,39.80
2022-12-20T03:27:26.993Z,42.30
2022-12-20T03:28:22.243Z,39.50
2022-12-20T03:29:17.444Z,44.40
2022-12-20T03:30:12.697Z,45.60
2022-12-20T03:31:10.532Z,43.70
2022-12-20T03:32:05.656Z,39.60
2022-12-20T03:33:00.834Z,47.90
2022-12-20T03:33:56.113Z,42.30
2022-12-20T03:34:51.457Z,43.60
2022-12-20T03:35:46.702Z,45.40
2022-12-20T03:36:41.816Z,44.60
2022-12-20T03:37:37.034Z,41.80
2022-12-20T03:38:32.138Z,37.80
2022-12-20T03:39:27.249Z,40.80
2022-12-20T03:40:22.341Z,44.90
2022-12-20T03:41:17.329Z,44.00
2022-12-20T03:42:12.399Z,41.80
2022-12-20T03:43:07.523Z,40.40
2022-12-20T03:44:02.706Z,45.10
2022-12-20T03:44:57.725Z,37.60
2022-12-20T03:45:52.825Z,44.30
2022-12-20T03:46:47.877Z,42.20
2022-12-20T03:47:43.184Z,43.80
2022-12-20T03:48:38.273Z,47.20
2022-12-20T03:49:33.485Z,43.70
2022-12-20T03:50:28.495Z,42.60
2022-12-20T03:51:23.598Z,37.90
2022-12-20T03:52:18.817Z,39.60
2022-12-20T03:53:13.905Z,44.50
2022-12-20T03:54:09.030Z,45.10
2022-12-20T03:55:04.038Z,40.80
2022-12-20T03:55:59.130Z,38.50
2022-12-20T03:56:54.196Z,40.00
2022-12-20T03:57:49.316Z,42.10
2022-12-20T03:58:44.407Z,40.40
2022-12-20T03:59:39.444Z,39.80
2022-12-20T04:00:34.530Z,39.70
2022-12-20T04:01:29.672Z,39.70
2022-12-20T04:02:26.384Z,40.30
2022-12-20T04:03:21.378Z,40.80
2022-12-20T04:04:16.359Z,40.10
2022-12-20T04:05:11.341Z,39.70
2022-12-20T04:06:06.353Z,43.50
2022-12-20T04:07:01.442Z,40.10
2022-12-20T04:07:56.579Z,37.70
2022-12-20T04:08:51.630Z,40.30
2022-12-20T04:09:46.594Z,40.40
2022-12-20T04:10:41.702Z,41.10
2022-12-20T04:11:36.792Z,42.30
2022-12-20T04:12:31.941Z,35.60
2022-12-20T04:13:27.575Z,41.70
2022-12-20T04:14:22.793Z,43.30
2022-12-20T04:15:17.977Z,38.30
2022-12-20T04:16:13.900Z,41.50
2022-12-20T04:17:09.063Z,42.70
2022-12-20T04:18:04.796Z,39.60
2022-12-20T04:18:59.972Z,38.90
2022-12-20T04:19:55.381Z,38.50
2022-12-20T04:20:51.136Z,39.30
2022-12-20T04:21:46.360Z,33.60
2022-12-20T04:22:41.551Z,37.10
2022-12-20T04:23:37.886Z,42.00
2022-12-20T04:24:33.091Z,37.60
2022-12-20T04:25:28.813Z,35.40
2022-12-20T04:26:24.003Z,38.20
2022-12-20T04:27:19.201Z,37.20
2022-12-20T04:28:14.933Z,38.60
2022-12-20T04:29:10.286Z,42.70
2022-12-20T04:30:06.120Z,39.70
2022-12-20T04:31:01.272Z,37.80
2022-12-20T04:31:56.467Z,33.60
2022-12-20T04:32:52.264Z,37.30
2022-12-20T04:33:47.675Z,40.30
2022-12-20T04:34:42.925Z,34.30
2022-12-20T04:35:39.198Z,38.00
2022-12-20T04:36:34.538Z,35.40
2022-12-20T04:37:30.322Z,37.70
2022-12-20T04:38:25.538Z,46.00
2022-12-20T04:39:21.064Z,38.60
2022-12-20T04:40:16.757Z,37.20
2022-12-20T04:41:11.991Z,44.90
2022-12-20T04:42:07.816Z,41.80
2022-12-20T04:43:03.013Z,33.70
2022-12-20T04:43:58.409Z,37.70
2022-12-20T04:44:54.109Z,34.30
2022-12-20T04:45:49.364Z,34.10
2022-12-20T04:46:44.709Z,39.60
2022-12-20T04:47:40.949Z,38.10
2022-12-20T04:48:55.647Z,36.60
2022-12-20T04:49:33.048Z,38.20
2022-12-20T04:50:27.355Z,38.70
2022-12-20T04:51:22.515Z,39.00
2022-12-20T04:52:18.287Z,44.80
2022-12-20T04:53:13.488Z,39.80
2022-12-20T04:54:09.423Z,37.70
2022-12-20T04:55:04.467Z,36.60
2022-12-20T04:55:59.679Z,38.70
2022-12-20T04:56:55.525Z,35.50
2022-12-20T04:57:50.720Z,35.50
2022-12-20T04:58:46.031Z,35.40
2022-12-20T04:59:41.125Z,42.50
2022-12-20T05:00:36.864Z,40.00
2022-12-20T05:01:32.115Z,34.40
2022-12-20T05:02:27.531Z,38.40
2022-12-20T05:03:23.185Z,43.40
2022-12-20T05:04:18.386Z,43.70
2022-12-20T05:05:14.274Z,39.30
2022-12-20T05:06:09.340Z,38.60
2022-12-20T05:07:04.542Z,35.40
2022-12-20T05:08:00.348Z,36.60
2022-12-20T05:08:55.531Z,37.10
2022-12-20T05:09:50.871Z,35.70
2022-12-20T05:10:47.341Z,38.00
2022-12-20T05:11:42.408Z,36.80
2022-12-20T05:12:38.178Z,36.40
2022-12-20T05:13:33.401Z,37.00
2022-12-20T05:14:28.713Z,42.60
2022-12-20T05:15:24.411Z,36.90
2022-12-20T05:16:19.525Z,34.10
2022-12-20T05:17:14.769Z,40.20
2022-12-20T05:18:09.985Z,37.60
2022-12-20T05:19:05.173Z,46.60
2022-12-20T05:20:00.380Z,40.90
2022-12-20T05:20:55.567Z,45.70
2022-12-20T05:21:51.870Z,38.00
2022-12-20T05:22:47.363Z,48.00
2022-12-20T05:23:42.411Z,47.80
2022-12-20T05:24:38.234Z,45.00
2022-12-20T05:25:33.369Z,40.10
2022-12-20T05:26:28.687Z,41.60
2022-12-20T05:27:23.866Z,40.30
2022-12-20T05:28:19.219Z,43.80
2022-12-20T05:29:14.497Z,45.90
2022-12-20T05:30:10.806Z,42.10
2022-12-20T05:31:06.021Z,44.30
2022-12-20T05:32:01.380Z,41.60
2022-12-20T05:33:00.511Z,42.30
2022-12-20T05:33:55.709Z,42.40
2022-12-20T05:34:50.904Z,46.90
2022-12-20T05:35:46.088Z,37.30
2022-12-20T05:36:41.153Z,42.50
2022-12-20T05:37:36.213Z,38.60
2022-12-20T05:38:31.289Z,44.90
2022-12-20T05:39:26.341Z,37.70
2022-12-20T05:40:21.464Z,40.10
2022-12-20T05:41:16.681Z,47.80
2022-12-20T05:42:11.842Z,37.10
2022-12-20T05:43:06.903Z,36.90
2022-12-20T05:44:02.127Z,40.80
2022-12-20T05:44:57.310Z,40.30
2022-12-20T05:45:52.493Z,38.20
2022-12-20T05:46:47.723Z,38.10
2022-12-20T05:47:42.680Z,40.50
2022-12-20T05:48:37.734Z,39.30
2022-12-20T05:49:32.732Z,37.30
2022-12-20T05:50:27.824Z,40.60
2022-12-20T05:51:22.879Z,36.70
2022-12-20T05:52:17.948Z,37.40
2022-12-20T05:53:12.967Z,40.30
2022-12-20T05:54:08.061Z,42.20
2022-12-20T05:55:03.138Z,41.10
2022-12-20T05:55:58.207Z,38.30
2022-12-20T05:56:53.297Z,37.70
2022-12-20T05:57:48.344Z,36.80
2022-12-20T05:58:43.535Z,35.60
2022-12-20T05:59:38.727Z,39.10
2022-12-20T06:00:34.045Z,35.30
2022-12-20T06:01:29.249Z,35.60
2022-12-20T06:02:24.660Z,40.20
2022-12-20T06:03:19.735Z,43.00
2022-12-20T06:04:15.030Z,41.20
2022-12-20T06:05:09.968Z,36.50
2022-12-20T06:06:10.147Z,39.20
2022-12-20T06:07:00.967Z,34.90
2022-12-20T06:07:55.228Z,35.30
2022-12-20T06:08:50.189Z,35.80
2022-12-20T06:09:45.231Z,40.40
2022-12-20T06:10:40.295Z,41.90
2022-12-20T06:11:35.444Z,38.70
2022-12-20T06:12:30.342Z,35.80
2022-12-20T06:13:25.553Z,43.10
2022-12-20T06:14:20.634Z,41.30
2022-12-20T06:15:15.767Z,41.80
2022-12-20T06:16:10.750Z,41.00
2022-12-20T06:17:05.845Z,42.80
2022-12-20T06:18:00.873Z,40.70
2022-12-20T06:18:55.944Z,41.90
2022-12-20T06:19:50.993Z,42.40
2022-12-20T06:20:46.448Z,48.70
2022-12-20T06:21:41.378Z,43.90
2022-12-20T06:22:36.450Z,44.10
2022-12-20T06:23:31.508Z,42.80
2022-12-20T06:24:26.540Z,40.40
2022-12-20T06:25:21.682Z,39.10
2022-12-20T06:26:16.997Z,38.30
2022-12-20T06:27:12.010Z,45.70
2022-12-20T06:28:07.141Z,40.80
2022-12-20T06:29:02.204Z,42.00
2022-12-20T06:29:57.250Z,42.30
2022-12-20T06:30:52.329Z,40.40
2022-12-20T06:31:47.641Z,43.10
2022-12-20T06:32:42.492Z,42.70
2022-12-20T06:33:37.594Z,42.50
2022-12-20T06:34:32.660Z,42.30
2022-12-20T06:35:27.816Z,40.60
2022-12-20T06:36:22.895Z,37.50
2022-12-20T06:37:22.845Z,38.90
2022-12-20T06:38:18.035Z,41.50
2022-12-20T06:39:13.275Z,43.90
2022-12-20T06:40:08.487Z,43.80
2022-12-20T06:41:03.858Z,38.70
2022-12-20T06:41:58.929Z,40.90
2022-12-20T06:42:54.159Z,46.30
2022-12-20T06:43:49.381Z,41.00
2022-12-20T06:44:44.585Z,42.10
2022-12-20T06:45:42.251Z,42.90
2022-12-20T06:46:35.124Z,48.30
2022-12-20T06:47:30.330Z,45.00
2022-12-20T06:48:25.533Z,42.80
2022-12-20T06:49:20.871Z,40.70
2022-12-20T06:50:16.211Z,41.50
2022-12-20T06:51:11.514Z,41.60
2022-12-20T06:52:06.754Z,39.50
2022-12-20T06:53:01.983Z,39.80
2022-12-20T06:53:57.169Z,40.10
2022-12-20T06:54:52.372Z,43.40
2022-12-20T06:55:47.726Z,40.60
2022-12-20T06:56:42.897Z,39.50
2022-12-20T06:57:38.293Z,38.80
2022-12-20T06:58:33.475Z,46.10
2022-12-20T06:59:28.738Z,37.10
2022-12-20T07:00:24.076Z,66.90
2022-12-20T07:01:19.560Z,47.40
2022-12-20T07:02:14.834Z,41.30
2022-12-20T07:03:10.135Z,43.00
2022-12-20T07:04:05.341Z,40.70
2022-12-20T07:05:02.240Z,39.00
2022-12-20T07:05:57.508Z,40.60
2022-12-20T07:06:52.745Z,46.70
2022-12-20T07:07:48.284Z,41.10
2022-12-20T07:08:43.466Z,40.40
2022-12-20T07:09:38.688Z,42.10
2022-12-20T07:10:33.706Z,41.40
2022-12-20T07:11:28.801Z,38.00
2022-12-20T07:12:23.899Z,49.20
2022-12-20T07:13:18.884Z,45.20
2022-12-20T07:14:14.020Z,39.40
2022-12-20T07:15:09.059Z,41.80
2022-12-20T07:16:04.212Z,38.50
2022-12-20T07:16:59.200Z,43.60
2022-12-20T07:17:54.227Z,40.50
2022-12-20T07:18:49.213Z,49.50
2022-12-20T07:19:50.332Z,46.20
2022-12-20T07:20:40.343Z,40.90
2022-12-20T07:21:34.415Z,46.60
2022-12-20T07:22:29.541Z,48.30
2022-12-20T07:23:24.682Z,45.50
2022-12-20T07:24:19.730Z,41.10
2022-12-20T07:25:14.839Z,45.10
2022-12-20T07:26:09.867Z,41.10
2022-12-20T07:27:04.925Z,43.60
2022-12-20T07:27:59.975Z,44.60
2022-12-20T07:28:55.310Z,38.60
2022-12-20T07:29:50.594Z,44.70
2022-12-20T07:30:46.021Z,44.40
2022-12-20T07:31:41.232Z,35.90
2022-12-20T07:32:36.542Z,39.80
2022-12-20T07:33:31.883Z,46.00
2022-12-20T07:34:27.264Z,42.00
2022-12-20T07:35:22.713Z,39.10
2022-12-20T07:36:17.878Z,38.60
2022-12-20T07:37:13.217Z,39.80
2022-12-20T07:38:08.720Z,47.90
2022-12-20T07:39:03.920Z,40.30
2022-12-20T07:39:59.308Z,43.30
2022-12-20T07:40:54.667Z,34.90
2022-12-20T07:41:50.022Z,45.50
2022-12-20T07:42:48.828Z,36.20
2022-12-20T07:43:40.812Z,39.60
2022-12-20T07:44:36.238Z,38.00
2022-12-20T07:45:31.610Z,39.90
2022-12-20T07:46:26.919Z,36.90
2022-12-20T07:47:22.233Z,39.60
2022-12-20T07:48:21.539Z,42.10
2022-12-20T07:49:13.266Z,41.90
2022-12-20T07:50:08.801Z,44.80
2022-12-20T07:51:04.077Z,53.00
2022-12-20T07:51:59.468Z,50.90
2022-12-20T07:52:54.856Z,47.40
2022-12-20T07:53:50.228Z,54.50
2022-12-20T07:54:45.344Z,61.60
2022-12-20T07:55:40.398Z,61.80
2022-12-20T07:56:40.942Z,74.30
2022-12-20T07:57:31.422Z,68.20
2022-12-20T07:58:25.449Z,60.90
2022-12-20T07:59:20.518Z,70.40
2022-12-20T08:00:15.680Z,66.50
2022-12-20T08:01:10.671Z,72.80
2022-12-20T08:02:05.855Z,65.50
2022-12-20T08:03:00.926Z,61.50
2022-12-20T08:03:55.803Z,55.10
2022-12-20T08:04:50.803Z,61.70
2022-12-20T08:05:45.884Z,60.00
2022-12-20T08:06:40.724Z,63.20
2022-12-20T08:07:37.464Z,60.00
2022-12-20T08:08:32.428Z,58.20
2022-12-20T08:09:27.568Z,61.20
2022-12-20T08:10:22.718Z,59.90
2022-12-20T08:11:17.679Z,62.00
2022-12-20T08:12:12.786Z,67.10
2022-12-20T08:13:07.885Z,61.30
2022-12-20T08:14:02.951Z,57.40
2022-12-20T08:14:58.911Z,54.90
2022-12-20T08:15:54.391Z,55.70
2022-12-20T08:16:49.834Z,50.70
2022-12-20T08:17:45.144Z,54.20
2022-12-20T08:18:40.752Z,39.10
2022-12-20T08:19:35.852Z,46.40
2022-12-20T08:20:31.204Z,41.00
2022-12-20T08:21:26.558Z,37.70
2022-12-20T08:22:21.965Z,45.00
2022-12-20T08:23:17.313Z,43.50
2022-12-20T08:24:12.827Z,48.10
2022-12-20T08:25:08.052Z,50.50
2022-12-20T08:26:03.463Z,49.80
2022-12-20T08:26:58.996Z,58.40
2022-12-20T08:27:54.226Z,51.90
2022-12-20T08:28:49.721Z,56.40
2022-12-20T08:29:44.962Z,56.40
2022-12-20T08:30:40.369Z,52.40
2022-12-20T08:31:35.798Z,54.70
2022-12-20T08:32:31.019Z,55.90
2022-12-20T08:33:26.515Z,57.20
2022-12-20T08:34:21.733Z,53.60
2022-12-20T08:35:17.107Z,63.20
2022-12-20T08:36:12.496Z,57.70
2022-12-20T08:37:14.530Z,56.70
2022-12-20T08:38:04.205Z,52.50
2022-12-20T08:38:58.640Z,56.70
2022-12-20T08:39:53.944Z,56.20
2022-12-20T08:40:49.332Z,59.10
2022-12-20T08:41:44.965Z,52.80
2022-12-20T08:42:40.343Z,58.60
2022-12-20T08:43:35.752Z,57.50
2022-12-20T08:44:31.217Z,56.50
2022-12-20T08:45:26.583Z,52.70
2022-12-20T08:46:26.199Z,58.00
2022-12-20T08:47:21.493Z,48.80
2022-12-20T08:48:16.852Z,52.80
2022-12-20T08:49:12.231Z,46.00
2022-12-20T08:50:07.736Z,46.70
2022-12-20T08:51:03.294Z,44.40
2022-12-20T08:51:58.515Z,40.70
2022-12-20T08:52:53.731Z,42.90
2022-12-20T08:53:49.107Z,48.10
2022-12-20T08:54:44.459Z,40.10
2022-12-20T08:55:40.050Z,44.80
2022-12-20T08:56:35.273Z,46.70
2022-12-20T08:57:30.488Z,43.80
2022-12-20T08:58:25.825Z,39.00
2022-12-20T08:59:21.192Z,36.00
2022-12-20T09:00:16.578Z,40.00
2022-12-20T09:01:12.091Z,35.70
2022-12-20T09:02:07.434Z,33.20
2022-12-20T09:03:02.860Z,30.60
2022-12-20T09:03:58.142Z,29.10
2022-12-20T09:04:53.490Z,36.40
2022-12-20T09:05:48.876Z,29.90
2022-12-20T09:06:44.255Z,28.40
2022-12-20T09:07:39.625Z,28.30
2022-12-20T09:08:34.996Z,27.90
2022-12-20T09:09:31.444Z,28.20
2022-12-20T09:10:26.835Z,28.80
2022-12-20T09:11:22.206Z,28.30
2022-12-20T09:12:17.579Z,30.10
2022-12-20T09:13:12.933Z,34.10
2022-12-20T09:14:08.419Z,30.30
2022-12-20T09:15:03.696Z,29.50
2022-12-20T09:16:00.663Z,33.10
2022-12-20T09:16:56.009Z,33.50
2022-12-20T09:17:51.277Z,33.90
2022-12-20T09:18:46.624Z,34.00
2022-12-20T09:19:42.165Z,34.80
2022-12-20T09:20:37.488Z,32.80
2022-12-20T09:21:32.878Z,30.40
2022-12-20T09:22:28.246Z,34.80
2022-12-20T09:23:23.609Z,31.70
2022-12-20T09:24:18.947Z,37.20
2022-12-20T09:25:14.402Z,34.70
2022-12-20T09:26:09.744Z,34.50
2022-12-20T09:27:05.254Z,29.40
2022-12-20T09:28:00.506Z,30.30
2022-12-20T09:29:00.126Z,31.10
2022-12-20T09:29:55.460Z,34.10
2022-12-20T09:30:50.840Z,32.60
2022-12-20T09:31:46.228Z,29.20
2022-12-20T09:32:41.728Z,31.50
2022-12-20T09:33:37.129Z,34.10
2022-12-20T09:34:32.504Z,33.00
2022-12-20T09:35:28.044Z,30.80
2022-12-20T09:36:23.339Z,35.00
2022-12-20T09:37:18.666Z,33.50
2022-12-20T09:38:14.170Z,31.70
2022-12-20T09:39:09.396Z,31.70
2022-12-20T09:40:04.832Z,36.40
2022-12-20T09:41:00.081Z,32.10
2022-12-20T09:41:55.505Z,32.30
2022-12-20T09:42:50.980Z,40.90
2022-12-20T09:43:46.299Z,36.10
2022-12-20T09:44:41.763Z,35.60
2022-12-20T09:45:36.741Z,30.10
2022-12-20T09:46:31.936Z,30.50
2022-12-20T09:47:27.000Z,27.80
2022-12-20T09:48:22.047Z,32.10
2022-12-20T09:49:17.164Z,34.80
2022-12-20T09:50:12.183Z,34.70
2022-12-20T09:51:07.264Z,34.40
2022-12-20T09:52:02.948Z,34.00
2022-12-20T09:52:57.979Z,29.80
2022-12-20T09:53:53.027Z,35.20
2022-12-20T09:54:48.036Z,31.70
2022-12-20T09:55:43.029Z,34.80
2022-12-20T09:56:38.188Z,31.40
2022-12-20T09:57:33.064Z,30.80
2022-12-20T09:58:28.100Z,33.00
2022-12-20T09:59:23.122Z,30.50
2022-12-20T10:00:18.148Z,32.00
2022-12-20T10:01:15.431Z,32.40
2022-12-20T10:02:44.022Z,30.40
2022-12-20T10:03:09.917Z,34.50
2022-12-20T10:04:00.141Z,32.90
2022-12-20T10:04:54.699Z,34.40
2022-12-20T10:05:50.233Z,31.80
2022-12-20T10:06:45.478Z,29.10
2022-12-20T10:07:41.014Z,33.30
2022-12-20T10:08:36.433Z,34.50
2022-12-20T10:09:31.873Z,34.30
2022-12-20T10:10:27.299Z,33.50
2022-12-20T10:11:22.718Z,35.10
2022-12-20T10:12:18.159Z,35.10
2022-12-20T10:13:13.995Z,34.70
2022-12-20T10:14:09.432Z,32.90
2022-12-20T10:15:09.290Z,31.50
2022-12-20T10:16:03.769Z,37.10
2022-12-20T10:16:59.033Z,35.70
2022-12-20T10:17:54.538Z,36.30
2022-12-20T10:18:50.110Z,29.40
2022-12-20T10:19:45.557Z,32.30
2022-12-20T10:20:41.099Z,35.60
2022-12-20T10:21:36.597Z,30.80
2022-12-20T10:22:32.039Z,31.40
2022-12-20T10:23:33.109Z,32.40
2022-12-20T10:24:23.920Z,33.50
2022-12-20T10:25:18.383Z,33.50
2022-12-20T10:26:13.855Z,33.70
2022-12-20T10:27:09.311Z,30.70
2022-12-20T10:28:04.811Z,31.20
2022-12-20T10:29:00.276Z,30.80
2022-12-20T10:29:55.798Z,31.80
2022-12-20T10:30:51.272Z,30.50
2022-12-20T10:31:46.787Z,32.20
2022-12-20T10:32:42.260Z,31.30
2022-12-20T10:33:37.761Z,32.40
2022-12-20T10:34:38.129Z,31.30
2022-12-20T10:35:29.599Z,30.90
2022-12-20T10:36:24.069Z,34.30
2022-12-20T10:37:23.313Z,31.90
2022-12-20T10:38:18.776Z,36.20
2022-12-20T10:39:14.516Z,26.60
2022-12-20T10:40:09.897Z,31.40
2022-12-20T10:41:22.754Z,35.70
2022-12-20T10:42:02.112Z,32.00
2022-12-20T10:42:56.403Z,35.60
2022-12-20T10:43:51.882Z,31.80
2022-12-20T10:44:47.624Z,32.00
2022-12-20T10:45:43.000Z,37.50
2022-12-20T10:46:38.153Z,29.70
2022-12-20T10:47:33.298Z,33.00
2022-12-20T10:48:28.231Z,31.90
2022-12-20T10:49:23.441Z,33.30
2022-12-20T10:50:18.531Z,32.80
2022-12-20T10:51:16.130Z,36.20
2022-12-20T10:52:08.623Z,35.50
2022-12-20T10:53:03.668Z,33.20
2022-12-20T10:53:58.753Z,32.30
2022-12-20T10:54:53.836Z,34.00
2022-12-20T10:55:48.899Z,29.60
2022-12-20T10:56:43.996Z,32.00
2022-12-20T10:57:39.078Z,33.90
2022-12-20T10:58:34.576Z,34.40
2022-12-20T10:59:30.046Z,32.90
2022-12-20T11:00:28.739Z,31.90
2022-12-20T11:01:24.202Z,31.60
2022-12-20T11:02:19.757Z,33.10
2022-12-20T11:03:15.177Z,35.10
2022-12-20T11:04:10.612Z,32.00
2022-12-20T11:05:05.974Z,34.40
2022-12-20T11:06:01.495Z,37.20
2022-12-20T11:06:57.121Z,38.00
2022-12-20T11:08:24.549Z,30.90
2022-12-20T11:08:53.895Z,32.40
2022-12-20T11:09:44.649Z,33.70
2022-12-20T11:10:39.058Z,32.30
2022-12-20T11:11:34.547Z,31.60
2022-12-20T11:12:30.028Z,34.10
2022-12-20T11:13:25.673Z,30.50
2022-12-20T11:14:21.000Z,33.60
2022-12-20T11:15:16.490Z,28.80
2022-12-20T11:16:12.144Z,31.00
2022-12-20T11:17:07.642Z,29.90
2022-12-20T11:18:03.106Z,33.20
2022-12-20T11:18:58.193Z,32.70
2022-12-20T11:19:53.348Z,30.90
2022-12-20T11:20:48.472Z,34.00
2022-12-20T11:21:43.495Z,32.00
2022-12-20T11:22:38.604Z,33.20
2022-12-20T11:23:33.558Z,33.50
2022-12-20T11:24:28.616Z,32.40
2022-12-20T11:25:23.723Z,33.50
2022-12-20T11:26:18.819Z,33.10
2022-12-20T11:27:15.840Z,35.20
2022-12-20T11:28:08.932Z,31.70
2022-12-20T11:29:03.999Z,33.80
2022-12-20T11:29:59.075Z,33.50
2022-12-20T11:30:54.160Z,30.30
2022-12-20T11:31:49.258Z,30.50
2022-12-20T11:32:48.619Z,34.80
2022-12-20T11:33:39.301Z,30.70
2022-12-20T11:34:34.635Z,30.60
2022-12-20T11:35:30.090Z,31.00
2022-12-20T11:36:29.480Z,29.90
2022-12-20T11:37:25.088Z,31.00
2022-12-20T11:38:20.686Z,33.30
2022-12-20T11:39:16.048Z,31.80
2022-12-20T11:40:11.617Z,31.20
2022-12-20T11:41:07.097Z,31.50
2022-12-20T11:42:02.544Z,31.90
2022-12-20T11:42:58.170Z,35.80
2022-12-20T11:44:23.830Z,31.90
2022-12-20T11:44:57.992Z,36.20
2022-12-20T11:45:45.456Z,33.10
2022-12-20T11:46:40.016Z,34.60
2022-12-20T11:47:35.375Z,32.60
2022-12-20T11:48:30.727Z,36.90
2022-12-20T11:49:26.250Z,31.70
2022-12-20T11:50:21.248Z,34.80
2022-12-20T11:51:20.134Z,32.30
2022-12-20T11:52:12.300Z,36.20